Terminal Aerodrome Forecast
Issued by NWS Mt. Holly, NJ

Home | Current Version | Previous Version | Text Only | Print | Product List | Glossary On
Versions: 1 2 3 4 5 6 7 8 9 10 11 12 13 14 15 16 17 18 19 20 21 22 23 24 25 26
000
FTUS41 KPHI 160300 AAC
TAFRDG
TAF AMD
KRDG 160305Z 1603/1624 32012G20KT P6SM SCT024 OVC035
      TEMPO 1603/1605 BKN024 OVC035
     FM160500 32015G25KT P6SM SCT040
     FM160700 32012G22KT P6SM FEW050
     FM161800 35009KT P6SM SKC=

USA.gov is the U.S. government's official web portal to all federal, state and local government web resources and services.